sensor_id;sensor_type;location;lat;lon;timestamp;temperature;humidity
25616;DHT22;13482;48.234;13.006;2022-11-13T00:01:21;7.70;76.50
25616;DHT22;13482;48.234;13.006;2022-11-13T00:03:49;7.70;76.60
25616;DHT22;13482;48.234;13.006;2022-11-13T00:06:17;7.70;76.60
25616;DHT22;13482;48.234;13.006;2022-11-13T00:08:46;7.70;76.60
25616;DHT22;13482;48.234;13.006;2022-11-13T00:11:18;7.70;76.60
25616;DHT22;13482;48.234;13.006;2022-11-13T00:13:46;7.70;76.70
25616;DHT22;13482;48.234;13.006;2022-11-13T00:16:19;7.70;76.70
25616;DHT22;13482;48.234;13.006;2022-11-13T00:18:47;7.70;76.70
25616;DHT22;13482;48.234;13.006;2022-11-13T00:21:19;7.70;76.60
25616;DHT22;13482;48.234;13.006;2022-11-13T00:23:48;7.70;76.60
25616;DHT22;13482;48.234;13.006;2022-11-13T00:26:22;7.70;76.60
25616;DHT22;13482;48.234;13.006;2022-11-13T00:28:59;7.60;76.60
25616;DHT22;13482;48.234;13.006;2022-11-13T00:31:28;7.60;76.60
25616;DHT22;13482;48.234;13.006;2022-11-13T00:33:57;7.60;76.50
25616;DHT22;13482;48.234;13.006;2022-11-13T00:36:45;7.60;76.50
25616;DHT22;13482;48.234;13.006;2022-11-13T00:39:12;7.60;76.50
25616;DHT22;13482;48.234;13.006;2022-11-13T00:41:40;7.60;76.40
25616;DHT22;13482;48.234;13.006;2022-11-13T00:44:07;7.50;76.50
25616;DHT22;13482;48.234;13.006;2022-11-13T00:46:34;7.50;76.40
25616;DHT22;13482;48.234;13.006;2022-11-13T00:49:01;7.50;76.40
25616;DHT22;13482;48.234;13.006;2022-11-13T00:51:29;7.50;76.40
25616;DHT22;13482;48.234;13.006;2022-11-13T00:53:56;7.50;76.30
25616;DHT22;13482;48.234;13.006;2022-11-13T00:56:24;7.50;76.30
25616;DHT22;13482;48.234;13.006;2022-11-13T00:58:51;7.50;76.30
25616;DHT22;13482;48.234;13.006;2022-11-13T01:01:19;7.50;76.30
25616;DHT22;13482;48.234;13.006;2022-11-13T01:03:46;7.40;76.30
25616;DHT22;13482;48.234;13.006;2022-11-13T01:06:19;7.40;76.30
25616;DHT22;13482;48.234;13.006;2022-11-13T01:08:48;7.40;76.20
25616;DHT22;13482;48.234;13.006;2022-11-13T01:11:18;7.40;76.20
25616;DHT22;13482;48.234;13.006;2022-11-13T01:13:48;7.30;76.10
25616;DHT22;13482;48.234;13.006;2022-11-13T01:16:18;7.30;76.20
25616;DHT22;13482;48.234;13.006;2022-11-13T01:18:48;7.30;76.20
25616;DHT22;13482;48.234;13.006;2022-11-13T01:21:17;7.20;76.30
25616;DHT22;13482;48.234;13.006;2022-11-13T01:23:46;7.20;76.30
25616;DHT22;13482;48.234;13.006;2022-11-13T01:26:19;7.10;76.30
25616;DHT22;13482;48.234;13.006;2022-11-13T01:28:48;7.10;76.10
25616;DHT22;13482;48.234;13.006;2022-11-13T01:31:19;7.00;76.10
25616;DHT22;13482;48.234;13.006;2022-11-13T01:33:47;7.00;76.30
25616;DHT22;13482;48.234;13.006;2022-11-13T01:36:20;6.90;76.30
25616;DHT22;13482;48.234;13.006;2022-11-13T01:38:50;6.90;76.40
25616;DHT22;13482;48.234;13.006;2022-11-13T01:41:27;6.90;76.40
25616;DHT22;13482;48.234;13.006;2022-11-13T01:43:57;6.90;76.50
25616;DHT22;13482;48.234;13.006;2022-11-13T01:46:37;6.90;76.50
25616;DHT22;13482;48.234;13.006;2022-11-13T01:51:56;6.90;76.50
25616;DHT22;13482;48.234;13.006;2022-11-13T01:54:33;6.90;76.50
25616;DHT22;13482;48.234;13.006;2022-11-13T01:57:03;6.90;76.50
25616;DHT22;13482;48.234;13.006;2022-11-13T01:59:34;6.90;76.50
25616;DHT22;13482;48.234;13.006;2022-11-13T02:02:07;6.90;76.60
25616;DHT22;13482;48.234;13.006;2022-11-13T02:04:35;6.90;76.60
25616;DHT22;13482;48.234;13.006;2022-11-13T02:07:08;6.90;76.60
25616;DHT22;13482;48.234;13.006;2022-11-13T02:09:42;6.90;76.50
25616;DHT22;13482;48.234;13.006;2022-11-13T02:12:13;7.00;76.50
25616;DHT22;13482;48.234;13.006;2022-11-13T02:14:44;7.00;76.50
25616;DHT22;13482;48.234;13.006;2022-11-13T02:17:21;7.00;76.50
25616;DHT22;13482;48.234;13.006;2022-11-13T02:19:54;7.00;76.50
25616;DHT22;13482;48.234;13.006;2022-11-13T02:25:24;7.00;76.50
25616;DHT22;13482;48.234;13.006;2022-11-13T02:27:51;6.90;76.30
25616;DHT22;13482;48.234;13.006;2022-11-13T02:30:23;6.90;76.30
25616;DHT22;13482;48.234;13.006;2022-11-13T02:32:54;6.90;76.30
25616;DHT22;13482;48.234;13.006;2022-11-13T02:35:34;6.90;76.20
25616;DHT22;13482;48.234;13.006;2022-11-13T02:38:04;6.90;76.20
25616;DHT22;13482;48.234;13.006;2022-11-13T02:40:32;6.80;76.10
25616;DHT22;13482;48.234;13.006;2022-11-13T02:43:00;6.80;76.10
25616;DHT22;13482;48.234;13.006;2022-11-13T02:45:27;6.70;76.10
25616;DHT22;13482;48.234;13.006;2022-11-13T02:47:54;6.70;76.00
25616;DHT22;13482;48.234;13.006;2022-11-13T02:50:21;6.60;76.10
25616;DHT22;13482;48.234;13.006;2022-11-13T02:52:49;6.60;76.10
25616;DHT22;13482;48.234;13.006;2022-11-13T02:55:16;6.60;76.10
25616;DHT22;13482;48.234;13.006;2022-11-13T02:57:43;6.50;76.30
25616;DHT22;13482;48.234;13.006;2022-11-13T03:00:11;6.50;76.30
25616;DHT22;13482;48.234;13.006;2022-11-13T03:02:40;6.50;76.30
25616;DHT22;13482;48.234;13.006;2022-11-13T03:05:08;6.50;76.10
25616;DHT22;13482;48.234;13.006;2022-11-13T03:07:39;6.40;76.10
25616;DHT22;13482;48.234;13.006;2022-11-13T03:10:08;6.40;76.30
25616;DHT22;13482;48.234;13.006;2022-11-13T03:12:37;6.40;75.80
25616;DHT22;13482;48.234;13.006;2022-11-13T03:15:05;6.30;75.90
25616;DHT22;13482;48.234;13.006;2022-11-13T03:17:34;6.30;75.90
25616;DHT22;13482;48.234;13.006;2022-11-13T03:20:03;6.20;76.00
25616;DHT22;13482;48.234;13.006;2022-11-13T03:22:31;6.20;76.00
25616;DHT22;13482;48.234;13.006;2022-11-13T03:24:58;6.10;76.00
25616;DHT22;13482;48.234;13.006;2022-11-13T03:27:25;6.10;76.10
25616;DHT22;13482;48.234;13.006;2022-11-13T03:29:52;6.00;76.10
25616;DHT22;13482;48.234;13.006;2022-11-13T03:32:20;6.00;76.10
25616;DHT22;13482;48.234;13.006;2022-11-13T03:34:47;5.90;76.10
25616;DHT22;13482;48.234;13.006;2022-11-13T03:37:14;5.90;76.10
25616;DHT22;13482;48.234;13.006;2022-11-13T03:39:41;5.90;76.10
25616;DHT22;13482;48.234;13.006;2022-11-13T03:42:08;5.80;76.00
25616;DHT22;13482;48.234;13.006;2022-11-13T03:44:35;5.80;76.10
25616;DHT22;13482;48.234;13.006;2022-11-13T03:47:02;5.80;76.10
25616;DHT22;13482;48.234;13.006;2022-11-13T03:49:29;5.80;76.00
25616;DHT22;13482;48.234;13.006;2022-11-13T03:51:57;5.70;76.00
25616;DHT22;13482;48.234;13.006;2022-11-13T03:54:24;5.70;76.10
25616;DHT22;13482;48.234;13.006;2022-11-13T03:56:51;5.70;76.20
25616;DHT22;13482;48.234;13.006;2022-11-13T03:59:18;5.60;76.20
25616;DHT22;13482;48.234;13.006;2022-11-13T04:01:46;5.60;76.10
25616;DHT22;13482;48.234;13.006;2022-11-13T04:04:13;5.60;76.10
25616;DHT22;13482;48.234;13.006;2022-11-13T04:06:41;5.50;76.20
25616;DHT22;13482;48.234;13.006;2022-11-13T04:09:08;5.50;76.20
25616;DHT22;13482;48.234;13.006;2022-11-13T04:11:36;5.50;76.20
25616;DHT22;13482;48.234;13.006;2022-11-13T04:14:03;5.40;76.20
25616;DHT22;13482;48.234;13.006;2022-11-13T04:16:31;5.40;76.20
25616;DHT22;13482;48.234;13.006;2022-11-13T04:18:58;5.40;76.20
25616;DHT22;13482;48.234;13.006;2022-11-13T04:21:25;5.40;76.20
25616;DHT22;13482;48.234;13.006;2022-11-13T04:23:53;5.40;76.20
25616;DHT22;13482;48.234;13.006;2022-11-13T04:26:21;5.40;76.20
25616;DHT22;13482;48.234;13.006;2022-11-13T04:28:48;5.40;76.20
25616;DHT22;13482;48.234;13.006;2022-11-13T04:31:15;5.30;76.10
25616;DHT22;13482;48.234;13.006;2022-11-13T04:33:43;5.30;76.10
25616;DHT22;13482;48.234;13.006;2022-11-13T04:36:10;5.30;76.20
25616;DHT22;13482;48.234;13.006;2022-11-13T04:38:37;5.30;76.20
25616;DHT22;13482;48.234;13.006;2022-11-13T04:41:04;5.30;76.20
25616;DHT22;13482;48.234;13.006;2022-11-13T04:43:58;5.30;76.20
25616;DHT22;13482;48.234;13.006;2022-11-13T04:46:25;5.30;76.20
25616;DHT22;13482;48.234;13.006;2022-11-13T04:48:52;5.20;76.20
25616;DHT22;13482;48.234;13.006;2022-11-13T04:51:19;5.20;76.30
25616;DHT22;13482;48.234;13.006;2022-11-13T04:53:46;5.20;76.30
25616;DHT22;13482;48.234;13.006;2022-11-13T04:56:13;5.20;76.40
25616;DHT22;13482;48.234;13.006;2022-11-13T04:58:41;5.20;76.40
25616;DHT22;13482;48.234;13.006;2022-11-13T05:01:08;5.10;76.40
25616;DHT22;13482;48.234;13.006;2022-11-13T05:03:36;5.10;76.30
25616;DHT22;13482;48.234;13.006;2022-11-13T05:06:05;5.00;76.40
25616;DHT22;13482;48.234;13.006;2022-11-13T05:08:34;5.00;76.40
25616;DHT22;13482;48.234;13.006;2022-11-13T05:11:02;4.90;76.50
25616;DHT22;13482;48.234;13.006;2022-11-13T05:13:31;4.90;76.60
25616;DHT22;13482;48.234;13.006;2022-11-13T05:16:06;4.90;76.60
25616;DHT22;13482;48.234;13.006;2022-11-13T05:18:36;4.80;76.60
25616;DHT22;13482;48.234;13.006;2022-11-13T05:21:05;4.80;76.70
25616;DHT22;13482;48.234;13.006;2022-11-13T05:23:34;4.80;76.70
25616;DHT22;13482;48.234;13.006;2022-11-13T05:26:04;4.80;76.70
25616;DHT22;13482;48.234;13.006;2022-11-13T05:28:36;4.80;76.70
25616;DHT22;13482;48.234;13.006;2022-11-13T05:31:12;4.80;76.80
25616;DHT22;13482;48.234;13.006;2022-11-13T05:33:42;4.80;76.80
25616;DHT22;13482;48.234;13.006;2022-11-13T05:36:14;4.80;76.80
25616;DHT22;13482;48.234;13.006;2022-11-13T05:38:42;4.80;76.90
25616;DHT22;13482;48.234;13.006;2022-11-13T05:41:18;4.80;76.90
25616;DHT22;13482;48.234;13.006;2022-11-13T05:43:46;4.90;77.10
25616;DHT22;13482;48.234;13.006;2022-11-13T05:46:15;4.90;77.20
25616;DHT22;13482;48.234;13.006;2022-11-13T05:48:45;4.90;77.20
25616;DHT22;13482;48.234;13.006;2022-11-13T05:51:15;4.90;77.30
25616;DHT22;13482;48.234;13.006;2022-11-13T05:53:43;5.00;77.30
25616;DHT22;13482;48.234;13.006;2022-11-13T05:56:20;5.00;77.30
25616;DHT22;13482;48.234;13.006;2022-11-13T05:58:56;5.00;77.40
25616;DHT22;13482;48.234;13.006;2022-11-13T06:01:27;5.00;77.50
25616;DHT22;13482;48.234;13.006;2022-11-13T06:03:57;5.10;77.50
25616;DHT22;13482;48.234;13.006;2022-11-13T06:06:26;5.10;77.60
25616;DHT22;13482;48.234;13.006;2022-11-13T06:08:56;5.10;77.70
25616;DHT22;13482;48.234;13.006;2022-11-13T06:11:26;5.20;77.80
25616;DHT22;13482;48.234;13.006;2022-11-13T06:13:55;5.20;77.80
25616;DHT22;13482;48.234;13.006;2022-11-13T06:16:29;5.20;77.90
25616;DHT22;13482;48.234;13.006;2022-11-13T06:19:03;5.30;78.00
25616;DHT22;13482;48.234;13.006;2022-11-13T06:21:34;5.30;78.10
25616;DHT22;13482;48.234;13.006;2022-11-13T06:24:02;5.30;78.20
25616;DHT22;13482;48.234;13.006;2022-11-13T06:26:32;5.40;78.40
25616;DHT22;13482;48.234;13.006;2022-11-13T06:29:02;5.40;78.40
25616;DHT22;13482;48.234;13.006;2022-11-13T06:31:33;5.50;78.40
25616;DHT22;13482;48.234;13.006;2022-11-13T06:34:02;5.50;78.40
25616;DHT22;13482;48.234;13.006;2022-11-13T06:36:32;5.50;78.40
25616;DHT22;13482;48.234;13.006;2022-11-13T06:39:03;5.60;78.40
25616;DHT22;13482;48.234;13.006;2022-11-13T06:41:31;5.60;78.40
25616;DHT22;13482;48.234;13.006;2022-11-13T06:43:59;5.60;78.30
25616;DHT22;13482;48.234;13.006;2022-11-13T06:46:29;5.70;78.20
25616;DHT22;13482;48.234;13.006;2022-11-13T06:48:57;5.70;78.00
25616;DHT22;13482;48.234;13.006;2022-11-13T06:51:27;5.70;77.90
25616;DHT22;13482;48.234;13.006;2022-11-13T06:53:55;5.70;77.90
25616;DHT22;13482;48.234;13.006;2022-11-13T06:56:24;5.70;77.90
25616;DHT22;13482;48.234;13.006;2022-11-13T06:58:53;5.70;78.00
25616;DHT22;13482;48.234;13.006;2022-11-13T07:01:23;5.80;78.20
25616;DHT22;13482;48.234;13.006;2022-11-13T07:03:51;5.80;78.40
25616;DHT22;13482;48.234;13.006;2022-11-13T07:06:20;5.90;78.50
25616;DHT22;13482;48.234;13.006;2022-11-13T07:08:49;6.00;78.70
25616;DHT22;13482;48.234;13.006;2022-11-13T07:11:19;6.00;78.90
25616;DHT22;13482;48.234;13.006;2022-11-13T07:13:48;6.10;79.10
25616;DHT22;13482;48.234;13.006;2022-11-13T07:16:16;6.20;79.20
25616;DHT22;13482;48.234;13.006;2022-11-13T07:18:51;6.30;79.40
25616;DHT22;13482;48.234;13.006;2022-11-13T07:21:20;6.40;79.60
25616;DHT22;13482;48.234;13.006;2022-11-13T07:23:48;6.50;79.70
25616;DHT22;13482;48.234;13.006;2022-11-13T07:26:16;6.50;79.80
25616;DHT22;13482;48.234;13.006;2022-11-13T07:28:44;6.60;79.80
25616;DHT22;13482;48.234;13.006;2022-11-13T07:31:13;6.80;80.00
25616;DHT22;13482;48.234;13.006;2022-11-13T07:33:42;6.90;80.10
25616;DHT22;13482;48.234;13.006;2022-11-13T07:36:10;7.00;80.20
25616;DHT22;13482;48.234;13.006;2022-11-13T07:38:37;7.10;80.30
25616;DHT22;13482;48.234;13.006;2022-11-13T07:41:04;7.20;80.30
25616;DHT22;13482;48.234;13.006;2022-11-13T07:43:32;7.40;80.30
25616;DHT22;13482;48.234;13.006;2022-11-13T07:46:00;7.50;80.40
25616;DHT22;13482;48.234;13.006;2022-11-13T07:48:27;7.60;80.40
25616;DHT22;13482;48.234;13.006;2022-11-13T07:50:59;7.70;80.50
25616;DHT22;13482;48.234;13.006;2022-11-13T07:53:27;7.90;80.50
25616;DHT22;13482;48.234;13.006;2022-11-13T07:55:55;8.00;80.40
25616;DHT22;13482;48.234;13.006;2022-11-13T07:58:22;8.10;80.40
25616;DHT22;13482;48.234;13.006;2022-11-13T08:00:49;8.20;80.40
25616;DHT22;13482;48.234;13.006;2022-11-13T08:03:16;8.30;80.40
25616;DHT22;13482;48.234;13.006;2022-11-13T08:05:43;8.50;80.50
25616;DHT22;13482;48.234;13.006;2022-11-13T08:08:12;8.60;80.40
25616;DHT22;13482;48.234;13.006;2022-11-13T08:10:41;8.70;80.40
25616;DHT22;13482;48.234;13.006;2022-11-13T08:13:09;8.90;80.40
25616;DHT22;13482;48.234;13.006;2022-11-13T08:15:37;9.00;80.30
25616;DHT22;13482;48.234;13.006;2022-11-13T08:18:05;9.20;80.20
25616;DHT22;13482;48.234;13.006;2022-11-13T08:20:33;9.30;80.10
25616;DHT22;13482;48.234;13.006;2022-11-13T08:23:01;9.40;80.10
25616;DHT22;13482;48.234;13.006;2022-11-13T08:25:30;9.50;80.10
25616;DHT22;13482;48.234;13.006;2022-11-13T08:27:59;9.60;80.00
25616;DHT22;13482;48.234;13.006;2022-11-13T08:30:27;9.80;79.80
25616;DHT22;13482;48.234;13.006;2022-11-13T08:32:54;9.90;79.60
25616;DHT22;13482;48.234;13.006;2022-11-13T08:35:22;10.00;79.50
25616;DHT22;13482;48.234;13.006;2022-11-13T08:38:03;10.10;79.50
25616;DHT22;13482;48.234;13.006;2022-11-13T08:40:32;10.20;79.40
25616;DHT22;13482;48.234;13.006;2022-11-13T08:43:00;10.30;79.30
25616;DHT22;13482;48.234;13.006;2022-11-13T08:45:29;10.40;79.20
25616;DHT22;13482;48.234;13.006;2022-11-13T08:48:00;10.50;79.10
25616;DHT22;13482;48.234;13.006;2022-11-13T08:50:29;10.60;79.00
25616;DHT22;13482;48.234;13.006;2022-11-13T08:52:58;10.70;78.90
25616;DHT22;13482;48.234;13.006;2022-11-13T08:55:26;10.80;78.80
25616;DHT22;13482;48.234;13.006;2022-11-13T08:57:57;10.90;78.70
25616;DHT22;13482;48.234;13.006;2022-11-13T09:00:27;11.10;78.80
25616;DHT22;13482;48.234;13.006;2022-11-13T09:02:56;11.20;78.70
25616;DHT22;13482;48.234;13.006;2022-11-13T09:05:25;11.30;78.60
25616;DHT22;13482;48.234;13.006;2022-11-13T09:07:56;11.40;78.60
25616;DHT22;13482;48.234;13.006;2022-11-13T09:10:25;11.50;78.50
25616;DHT22;13482;48.234;13.006;2022-11-13T09:13:01;11.60;78.50
25616;DHT22;13482;48.234;13.006;2022-11-13T09:15:31;11.70;78.40
25616;DHT22;13482;48.234;13.006;2022-11-13T09:18:00;11.80;78.30
25616;DHT22;13482;48.234;13.006;2022-11-13T09:20:29;11.90;78.00
25616;DHT22;13482;48.234;13.006;2022-11-13T09:23:02;12.00;77.90
25616;DHT22;13482;48.234;13.006;2022-11-13T09:25:34;12.20;77.80
25616;DHT22;13482;48.234;13.006;2022-11-13T09:28:04;12.20;77.60
25616;DHT22;13482;48.234;13.006;2022-11-13T09:30:32;12.30;77.00
25616;DHT22;13482;48.234;13.006;2022-11-13T09:33:00;12.40;77.40
25616;DHT22;13482;48.234;13.006;2022-11-13T09:35:29;12.50;77.30
25616;DHT22;13482;48.234;13.006;2022-11-13T09:43:38;12.80;77.30
25616;DHT22;13482;48.234;13.006;2022-11-13T09:49:24;13.00;76.70
25616;DHT22;13482;48.234;13.006;2022-11-13T09:51:56;13.20;76.10
25616;DHT22;13482;48.234;13.006;2022-11-13T09:54:32;13.30;76.80
25616;DHT22;13482;48.234;13.006;2022-11-13T10:00:09;13.40;75.80
25616;DHT22;13482;48.234;13.006;2022-11-13T10:08:18;13.60;75.00
25616;DHT22;13482;48.234;13.006;2022-11-13T10:13:51;13.70;75.30
25616;DHT22;13482;48.234;13.006;2022-11-13T10:16:53;13.80;74.90
25616;DHT22;13482;48.234;13.006;2022-11-13T10:25:17;13.90;75.30
25616;DHT22;13482;48.234;13.006;2022-11-13T10:28:00;14.00;75.30
25616;DHT22;13482;48.234;13.006;2022-11-13T10:30:48;14.10;74.90
25616;DHT22;13482;48.234;13.006;2022-11-13T10:33:18;14.20;74.80
25616;DHT22;13482;48.234;13.006;2022-11-13T10:39:05;14.30;75.30
25616;DHT22;13482;48.234;13.006;2022-11-13T10:41:44;14.40;74.80
25616;DHT22;13482;48.234;13.006;2022-11-13T10:44:29;14.50;74.50
25616;DHT22;13482;48.234;13.006;2022-11-13T10:47:17;14.60;74.20
25616;DHT22;13482;48.234;13.006;2022-11-13T10:50:13;14.70;74.00
25616;DHT22;13482;48.234;13.006;2022-11-13T10:52:55;14.70;74.50
25616;DHT22;13482;48.234;13.006;2022-11-13T10:58:13;14.90;74.20
25616;DHT22;13482;48.234;13.006;2022-11-13T11:00:45;15.00;74.40
25616;DHT22;13482;48.234;13.006;2022-11-13T11:03:23;15.00;74.80
25616;DHT22;13482;48.234;13.006;2022-11-13T11:06:02;15.10;74.70
25616;DHT22;13482;48.234;13.006;2022-11-13T11:08:35;15.20;74.00
25616;DHT22;13482;48.234;13.006;2022-11-13T11:11:22;15.30;74.40
25616;DHT22;13482;48.234;13.006;2022-11-13T11:16:51;15.50;73.40
25616;DHT22;13482;48.234;13.006;2022-11-13T11:19:24;15.60;74.00
25616;DHT22;13482;48.234;13.006;2022-11-13T11:22:06;15.60;73.70
25616;DHT22;13482;48.234;13.006;2022-11-13T11:25:36;15.70;73.60
25616;DHT22;13482;48.234;13.006;2022-11-13T11:27:47;15.80;72.80
25616;DHT22;13482;48.234;13.006;2022-11-13T11:30:21;15.90;73.50
25616;DHT22;13482;48.234;13.006;2022-11-13T11:35:53;16.10;72.20
25616;DHT22;13482;48.234;13.006;2022-11-13T11:38:36;16.20;73.40
25616;DHT22;13482;48.234;13.006;2022-11-13T11:41:11;16.30;73.00
25616;DHT22;13482;48.234;13.006;2022-11-13T11:47:02;16.50;73.20
25616;DHT22;13482;48.234;13.006;2022-11-13T11:49:29;16.60;73.10
25616;DHT22;13482;48.234;13.006;2022-11-13T12:00:49;16.90;71.60
25616;DHT22;13482;48.234;13.006;2022-11-13T12:09:29;17.20;71.10
25616;DHT22;13482;48.234;13.006;2022-11-13T12:30:16;17.50;69.50
25616;DHT22;13482;48.234;13.006;2022-11-13T12:33:30;17.50;70.40
25616;DHT22;13482;48.234;13.006;2022-11-13T12:35:59;17.60;69.80
25616;DHT22;13482;48.234;13.006;2022-11-13T12:41:17;17.60;70.10
25616;DHT22;13482;48.234;13.006;2022-11-13T12:43:59;17.70;71.00
25616;DHT22;13482;48.234;13.006;2022-11-13T12:46:38;17.70;70.80
25616;DHT22;13482;48.234;13.006;2022-11-13T12:49:33;17.80;70.40
25616;DHT22;13482;48.234;13.006;2022-11-13T12:52:14;17.80;69.30
25616;DHT22;13482;48.234;13.006;2022-11-13T12:54:42;17.80;70.70
25616;DHT22;13482;48.234;13.006;2022-11-13T12:59:49;17.90;70.20
25616;DHT22;13482;48.234;13.006;2022-11-13T13:02:29;17.90;70.10
25616;DHT22;13482;48.234;13.006;2022-11-13T13:10:33;18.00;69.30
25616;DHT22;13482;48.234;13.006;2022-11-13T13:15:58;18.10;69.80
25616;DHT22;13482;48.234;13.006;2022-11-13T13:18:31;18.10;69.30
25616;DHT22;13482;48.234;13.006;2022-11-13T13:21:09;18.10;69.60
25616;DHT22;13482;48.234;13.006;2022-11-13T13:23:45;18.10;69.10
25616;DHT22;13482;48.234;13.006;2022-11-13T13:26:24;18.10;69.20
25616;DHT22;13482;48.234;13.006;2022-11-13T13:28:59;18.20;69.10
25616;DHT22;13482;48.234;13.006;2022-11-13T13:31:56;18.20;69.80
25616;DHT22;13482;48.234;13.006;2022-11-13T13:35:00;18.30;68.60
25616;DHT22;13482;48.234;13.006;2022-11-13T13:40:36;18.40;68.80
25616;DHT22;13482;48.234;13.006;2022-11-13T13:43:26;18.40;68.40
25616;DHT22;13482;48.234;13.006;2022-11-13T13:46:21;18.50;68.70
25616;DHT22;13482;48.234;13.006;2022-11-13T13:49:01;18.50;68.90
25616;DHT22;13482;48.234;13.006;2022-11-13T13:51:39;18.60;69.50
25616;DHT22;13482;48.234;13.006;2022-11-13T13:54:11;18.70;69.00
25616;DHT22;13482;48.234;13.006;2022-11-13T13:56:44;18.80;69.50
25616;DHT22;13482;48.234;13.006;2022-11-13T13:59:15;18.90;69.60
25616;DHT22;13482;48.234;13.006;2022-11-13T14:01:56;19.10;69.50
25616;DHT22;13482;48.234;13.006;2022-11-13T14:04:27;19.30;68.40
25616;DHT22;13482;48.234;13.006;2022-11-13T14:06:58;19.50;69.40
25616;DHT22;13482;48.234;13.006;2022-11-13T14:09:28;19.70;69.20
25616;DHT22;13482;48.234;13.006;2022-11-13T14:12:04;19.80;69.20
25616;DHT22;13482;48.234;13.006;2022-11-13T14:14:38;20.00;68.70
25616;DHT22;13482;48.234;13.006;2022-11-13T14:17:07;20.20;68.70
25616;DHT22;13482;48.234;13.006;2022-11-13T14:19:35;20.40;68.40
25616;DHT22;13482;48.234;13.006;2022-11-13T14:22:04;20.50;67.40
25616;DHT22;13482;48.234;13.006;2022-11-13T14:25:04;20.50;66.40
25616;DHT22;13482;48.234;13.006;2022-11-13T14:27:31;20.40;64.60
25616;DHT22;13482;48.234;13.006;2022-11-13T14:30:00;20.20;65.30
25616;DHT22;13482;48.234;13.006;2022-11-13T14:32:30;20.00;64.90
25616;DHT22;13482;48.234;13.006;2022-11-13T14:35:01;19.70;64.70
25616;DHT22;13482;48.234;13.006;2022-11-13T14:37:38;19.50;64.80
25616;DHT22;13482;48.234;13.006;2022-11-13T14:40:28;19.30;64.00
25616;DHT22;13482;48.234;13.006;2022-11-13T14:43:04;19.00;63.90
25616;DHT22;13482;48.234;13.006;2022-11-13T14:45:51;18.80;65.10
25616;DHT22;13482;48.234;13.006;2022-11-13T14:48:24;18.60;65.10
25616;DHT22;13482;48.234;13.006;2022-11-13T14:50:59;18.40;65.20
25616;DHT22;13482;48.234;13.006;2022-11-13T14:53:37;18.20;65.30
25616;DHT22;13482;48.234;13.006;2022-11-13T14:56:10;18.00;65.10
25616;DHT22;13482;48.234;13.006;2022-11-13T14:58:40;17.80;65.20
25616;DHT22;13482;48.234;13.006;2022-11-13T15:01:17;17.70;65.30
25616;DHT22;13482;48.234;13.006;2022-11-13T15:03:50;17.50;65.50
25616;DHT22;13482;48.234;13.006;2022-11-13T15:06:24;17.30;65.60
25616;DHT22;13482;48.234;13.006;2022-11-13T15:08:55;17.10;65.40
25616;DHT22;13482;48.234;13.006;2022-11-13T15:11:24;17.00;65.60
25616;DHT22;13482;48.234;13.006;2022-11-13T15:13:52;16.90;65.20
25616;DHT22;13482;48.234;13.006;2022-11-13T15:16:26;16.70;66.00
25616;DHT22;13482;48.234;13.006;2022-11-13T15:19:01;16.60;65.80
25616;DHT22;13482;48.234;13.006;2022-11-13T15:21:32;16.40;65.90
25616;DHT22;13482;48.234;13.006;2022-11-13T15:24:00;16.30;66.20
25616;DHT22;13482;48.234;13.006;2022-11-13T15:26:27;16.10;66.30
25616;DHT22;13482;48.234;13.006;2022-11-13T15:28:54;16.00;66.40
25616;DHT22;13482;48.234;13.006;2022-11-13T15:31:36;15.90;66.50
25616;DHT22;13482;48.234;13.006;2022-11-13T15:34:09;15.80;66.10
25616;DHT22;13482;48.234;13.006;2022-11-13T15:36:37;15.70;66.60
25616;DHT22;13482;48.234;13.006;2022-11-13T15:39:06;15.60;66.80
25616;DHT22;13482;48.234;13.006;2022-11-13T15:41:41;15.50;66.80
25616;DHT22;13482;48.234;13.006;2022-11-13T15:44:15;15.40;66.90
25616;DHT22;13482;48.234;13.006;2022-11-13T15:46:42;15.30;66.90
25616;DHT22;13482;48.234;13.006;2022-11-13T15:49:09;15.20;67.20
25616;DHT22;13482;48.234;13.006;2022-11-13T15:51:43;15.10;67.30
25616;DHT22;13482;48.234;13.006;2022-11-13T15:54:21;15.10;67.20
25616;DHT22;13482;48.234;13.006;2022-11-13T15:56:51;15.00;67.40
25616;DHT22;13482;48.234;13.006;2022-11-13T15:59:18;14.90;67.50
25616;DHT22;13482;48.234;13.006;2022-11-13T16:01:45;14.80;67.60
25616;DHT22;13482;48.234;13.006;2022-11-13T16:04:13;14.80;67.70
25616;DHT22;13482;48.234;13.006;2022-11-13T16:06:42;14.70;67.70
25616;DHT22;13482;48.234;13.006;2022-11-13T16:09:13;14.60;67.80
25616;DHT22;13482;48.234;13.006;2022-11-13T16:11:41;14.60;67.80
25616;DHT22;13482;48.234;13.006;2022-11-13T16:14:09;14.50;67.80
25616;DHT22;13482;48.234;13.006;2022-11-13T16:16:38;14.40;67.90
25616;DHT22;13482;48.234;13.006;2022-11-13T16:19:12;14.40;67.90
25616;DHT22;13482;48.234;13.006;2022-11-13T16:21:43;14.40;67.90
25616;DHT22;13482;48.234;13.006;2022-11-13T16:24:10;14.30;68.00
25616;DHT22;13482;48.234;13.006;2022-11-13T16:26:38;14.20;68.10
25616;DHT22;13482;48.234;13.006;2022-11-13T16:29:17;14.20;68.20
25616;DHT22;13482;48.234;13.006;2022-11-13T16:31:46;14.10;68.10
25616;DHT22;13482;48.234;13.006;2022-11-13T16:34:14;14.10;68.20
25616;DHT22;13482;48.234;13.006;2022-11-13T16:36:41;14.00;68.30
25616;DHT22;13482;48.234;13.006;2022-11-13T16:39:14;13.90;68.30
25616;DHT22;13482;48.234;13.006;2022-11-13T16:41:42;13.90;68.30
25616;DHT22;13482;48.234;13.006;2022-11-13T16:44:09;13.80;68.40
25616;DHT22;13482;48.234;13.006;2022-11-13T16:46:39;13.80;68.40
25616;DHT22;13482;48.234;13.006;2022-11-13T16:49:13;13.70;68.50
25616;DHT22;13482;48.234;13.006;2022-11-13T16:51:47;13.70;68.50
25616;DHT22;13482;48.234;13.006;2022-11-13T16:54:14;13.60;68.60
25616;DHT22;13482;48.234;13.006;2022-11-13T16:56:42;13.60;68.60
25616;DHT22;13482;48.234;13.006;2022-11-13T16:59:10;13.50;68.80
25616;DHT22;13482;48.234;13.006;2022-11-13T17:01:38;13.50;68.90
25616;DHT22;13482;48.234;13.006;2022-11-13T17:04:05;13.40;68.90
25616;DHT22;13482;48.234;13.006;2022-11-13T17:06:34;13.40;69.00
25616;DHT22;13482;48.234;13.006;2022-11-13T17:09:03;13.30;69.10
25616;DHT22;13482;48.234;13.006;2022-11-13T17:11:31;13.30;69.20
25616;DHT22;13482;48.234;13.006;2022-11-13T17:14:00;13.20;69.20
25616;DHT22;13482;48.234;13.006;2022-11-13T17:16:29;13.20;69.30
25616;DHT22;13482;48.234;13.006;2022-11-13T17:18:58;13.20;69.40
25616;DHT22;13482;48.234;13.006;2022-11-13T17:21:27;13.10;69.40
25616;DHT22;13482;48.234;13.006;2022-11-13T17:24:00;13.10;69.40
25616;DHT22;13482;48.234;13.006;2022-11-13T17:26:29;13.00;69.50
25616;DHT22;13482;48.234;13.006;2022-11-13T17:28:59;13.00;69.60